Time;durP1;ratioP1;P1;durP2;ratioP2;P2;SDS_P1;SDS_P2;PMS_P1;PMS_P2;Temp;Humidity;BMP_temperature;BMP_pressure;BME280_temperature;BME280_humidity;BME280_pressure;Samples;Min_cycle;Max_cycle;Signal;HPM_P1;HPM_P2
2023/02/04 00:00:22;;;;;;;4.18;1.50;;;;;;;3.22;81.80;97774.03;5051794;28;20032;-76
2023/02/04 00:02:48;;;;;;;2.17;1.50;;;;;;;3.23;81.32;97794.63;5052898;28;20163;-75
2023/02/04 00:05:16;;;;;;;4.97;1.38;;;;;;;3.23;81.97;97777.56;5051992;28;20021;-75
2023/02/04 00:07:41;;;;;;;3.38;1.40;;;;;;;3.21;81.45;97772.41;5051004;28;20767;-76
2023/02/04 00:10:08;;;;;;;5.03;1.30;;;;;;;3.22;81.27;97784.06;5051510;28;20032;-75
2023/02/04 00:12:33;;;;;;;2.90;1.30;;;;;;;3.24;81.32;97776.50;5052359;28;20099;-75
2023/02/04 00:14:59;;;;;;;3.58;1.50;;;;;;;3.24;81.59;97769.16;5049973;28;20033;-74
2023/02/04 00:17:24;;;;;;;3.92;1.30;;;;;;;3.23;81.78;97772.97;5052383;28;20453;-73
2023/02/04 00:19:50;;;;;;;3.17;1.40;;;;;;;3.22;81.06;97774.03;5051226;28;20040;-75
2023/02/04 00:22:15;;;;;;;4.88;1.60;;;;;;;3.20;81.37;97775.41;5052029;28;20135;-74
2023/02/04 00:24:42;;;;;;;2.95;1.15;;;;;;;3.17;81.48;97765.88;5050621;28;20078;-75
2023/02/04 00:27:07;;;;;;;2.78;1.15;;;;;;;3.18;81.63;97774.84;5052162;28;20095;-74
2023/02/04 00:29:33;;;;;;;3.67;1.10;;;;;;;3.19;82.02;97763.72;5052037;28;20640;-75
2023/02/04 00:31:58;;;;;;;1.90;0.85;;;;;;;3.17;81.89;97771.31;5051714;28;20029;-74
2023/02/04 00:34:24;;;;;;;3.30;1.20;;;;;;;3.16;81.81;97774.28;5051608;28;20039;-74
2023/02/04 00:36:49;;;;;;;2.45;1.13;;;;;;;3.13;81.17;97772.91;5051373;28;20017;-75
2023/02/04 00:39:15;;;;;;;2.70;0.93;;;;;;;3.15;81.67;97773.47;5052026;28;20023;-74
2023/02/04 00:41:40;;;;;;;2.10;1.02;;;;;;;3.16;82.01;97769.66;5051223;28;20078;-75
2023/02/04 00:44:06;;;;;;;3.78;1.45;;;;;;;3.18;81.84;97772.94;5051608;28;20017;-75
2023/02/04 00:46:31;;;;;;;4.90;1.38;;;;;;;3.19;81.24;97766.44;5050060;28;20377;-74
2023/02/04 00:48:56;;;;;;;4.13;1.60;;;;;;;3.20;82.11;97770.78;5051468;28;20531;-74
2023/02/04 00:51:22;;;;;;;3.35;1.65;;;;;;;3.20;81.55;97772.69;5050125;28;20017;-74
2023/02/04 00:53:47;;;;;;;3.55;1.60;;;;;;;3.21;82.00;97777.03;5049492;28;20044;-75
2023/02/04 00:56:12;;;;;;;4.25;1.52;;;;;;;3.24;81.56;97768.38;5051198;28;20021;-75
2023/02/04 00:58:38;;;;;;;3.13;1.30;;;;;;;3.24;82.01;97773.78;5051579;28;20013;-74
2023/02/04 01:01:03;;;;;;;5.82;1.95;;;;;;;3.24;81.48;97771.88;5051183;28;20430;-74
2023/02/04 01:03:29;;;;;;;4.25;1.13;;;;;;;3.24;81.00;97762.94;5050942;28;20464;-75
2023/02/04 01:05:54;;;;;;;2.53;1.35;;;;;;;3.25;81.17;97759.97;5051152;28;20375;-74
2023/02/04 01:08:20;;;;;;;2.90;1.02;;;;;;;3.28;81.82;97758.59;5049894;28;20111;-75
2023/02/04 01:10:45;;;;;;;4.30;1.65;;;;;;;3.27;81.76;97748.84;5050996;28;20036;-75
2023/02/04 01:13:11;;;;;;;3.33;1.50;;;;;;;3.29;81.14;97749.38;5052217;28;20021;-76
2023/02/04 01:15:36;;;;;;;3.85;1.70;;;;;;;3.32;80.99;97751.56;5049746;28;20027;-76
2023/02/04 01:18:02;;;;;;;3.35;1.20;;;;;;;3.32;81.10;97753.47;5049798;28;20020;-75
2023/02/04 01:20:27;;;;;;;3.92;1.48;;;;;;;3.33;81.12;97752.41;5048616;28;20120;-75
2023/02/04 01:22:53;;;;;;;3.75;1.33;;;;;;;3.35;81.62;97750.25;5050625;28;20029;-76
2023/02/04 01:25:18;;;;;;;3.58;1.50;;;;;;;3.34;81.08;97741.28;5049590;28;20033;-76
2023/02/04 01:27:44;;;;;;;2.50;1.20;;;;;;;3.33;80.70;97739.66;5048585;28;20064;-76
2023/02/04 01:30:11;;;;;;;3.55;1.08;;;;;;;3.33;81.46;97745.06;5048778;28;20453;-76
2023/02/04 01:32:37;;;;;;;2.65;1.20;;;;;;;3.34;81.24;97757.53;5049821;28;20021;-76
2023/02/04 01:35:03;;;;;;;5.28;2.10;;;;;;;3.32;81.54;97770.53;5049380;28;20245;-76
2023/02/04 01:37:29;;;;;;;2.58;0.90;;;;;;;3.31;81.10;97789.78;5049759;28;20045;-76
2023/02/04 01:39:55;;;;;;;2.25;1.25;;;;;;;3.25;81.04;97767.28;5048970;28;20036;-77
2023/02/04 01:42:20;;;;;;;2.00;0.80;;;;;;;3.17;80.68;97771.31;5049639;28;20037;-76
2023/02/04 01:44:46;;;;;;;2.40;0.95;;;;;;;3.10;80.71;97770.72;5048295;28;20107;-76
2023/02/04 01:47:11;;;;;;;1.67;0.95;;;;;;;3.04;80.75;97771.81;5050183;28;20024;-77
2023/02/04 01:49:37;;;;;;;1.88;1.08;;;;;;;3.00;80.92;97778.81;5049155;28;20477;-76
2023/02/04 01:52:03;;;;;;;2.55;1.10;;;;;;;2.95;80.84;97790.44;5049477;28;20020;-76
2023/02/04 01:54:29;;;;;;;4.25;1.20;;;;;;;2.89;80.40;97786.06;5048074;28;20021;-77
2023/02/04 01:56:55;;;;;;;1.27;0.90;;;;;;;2.82;79.98;97787.13;5049505;28;20024;-75
2023/02/04 01:59:22;;;;;;;2.35;1.00;;;;;;;2.77;80.51;97799.81;5048832;28;20033;-76
2023/02/04 02:01:50;;;;;;;1.35;0.68;;;;;;;2.70;80.15;97799.22;5048651;28;20127;-76
2023/02/04 02:04:31;;;;;;;1.33;0.80;;;;;;;2.61;79.43;97805.16;5047805;28;20028;-75
2023/02/04 02:07:02;;;;;;;3.50;0.95;;;;;;;2.50;79.97;97784.50;5048661;28;20025;-76
2023/02/04 02:09:29;;;;;;;1.63;0.88;;;;;;;2.45;79.47;97795.28;5048946;28;20029;-75
2023/02/04 02:11:55;;;;;;;3.92;1.30;;;;;;;2.36;79.76;97814.69;5048732;28;20488;-75
2023/02/04 02:14:21;;;;;;;3.45;1.70;;;;;;;2.29;80.08;97816.78;5048766;28;20025;-76
2023/02/04 02:16:46;;;;;;;1.67;1.10;;;;;;;2.25;80.43;97815.66;5047727;28;20029;-76
2023/02/04 02:19:16;;;;;;;5.95;2.78;;;;;;;2.23;79.88;97825.97;5048150;28;20088;-76
2023/02/04 02:21:52;;;;;;;8.50;2.67;;;;;;;2.15;80.13;97845.38;5048401;28;20059;-76
2023/02/04 02:24:36;;;;;;;3.35;1.70;;;;;;;2.01;80.27;97853.09;5048807;28;20037;-76
2023/02/04 02:27:07;;;;;;;3.53;1.77;;;;;;;1.88;80.04;97847.00;5049172;28;20055;-76
2023/02/04 02:29:33;;;;;;;3.33;1.33;;;;;;;1.78;79.78;97819.84;5048689;28;20028;-76
2023/02/04 02:31:59;;;;;;;4.30;1.38;;;;;;;1.70;80.08;97831.94;5047488;28;20032;-76
2023/02/04 02:34:26;;;;;;;2.60;1.10;;;;;;;1.68;80.14;97831.38;5048401;28;20032;-77
2023/02/04 02:36:51;;;;;;;2.17;1.20;;;;;;;1.62;80.51;97837.78;5048645;28;20028;-76
2023/02/04 02:39:17;;;;;;;1.70;1.20;;;;;;;1.58;80.44;97845.59;5049029;28;20764;-76
2023/02/04 02:41:43;;;;;;;3.05;1.17;;;;;;;1.54;80.55;97843.63;5048690;28;20036;-75
2023/02/04 02:44:11;;;;;;;2.42;1.27;;;;;;;1.53;80.27;97853.66;5048712;28;20500;-76
2023/02/04 02:46:37;;;;;;;1.80;1.35;;;;;;;1.50;80.59;97854.16;5048346;28;20017;-76
2023/02/04 02:49:02;;;;;;;2.03;1.50;;;;;;;1.48;81.17;97864.38;5047276;28;20027;-76
2023/02/04 02:51:27;;;;;;;4.57;2.25;;;;;;;1.45;80.33;97868.41;5048150;28;20037;-76
2023/02/04 02:53:53;;;;;;;2.30;1.50;;;;;;;1.44;80.52;97864.06;5048345;28;20021;-76
2023/02/04 02:56:19;;;;;;;2.88;1.30;;;;;;;1.42;80.92;97881.59;5048221;28;20028;-76
2023/02/04 02:58:44;;;;;;;2.13;1.15;;;;;;;1.34;80.94;97875.56;5048489;28;20481;-76
2023/02/04 03:01:10;;;;;;;3.83;1.65;;;;;;;1.29;80.77;97869.28;5048082;28;20025;-76
2023/02/04 03:03:44;;;;;;;4.45;2.03;;;;;;;1.29;81.42;97877.41;5048160;28;20029;-77
2023/02/04 03:06:14;;;;;;;2.83;2.05;;;;;;;1.26;81.48;97876.00;5050182;28;20104;-75
2023/02/04 03:08:41;;;;;;;3.70;2.20;;;;;;;1.25;81.68;97882.47;5047385;28;20071;-76
2023/02/04 03:11:06;;;;;;;4.78;2.83;;;;;;;1.20;81.72;97887.81;5047208;28;20020;-76
2023/02/04 03:13:32;;;;;;;5.97;3.38;;;;;;;1.16;80.98;97884.78;5047886;28;20074;-76
2023/02/04 03:15:59;;;;;;;7.28;2.13;;;;;;;1.14;81.71;97902.31;5048131;28;20032;-76
2023/02/04 03:18:24;;;;;;;4.63;2.10;;;;;;;1.12;81.02;97896.34;5048372;28;20057;-76
2023/02/04 03:20:50;;;;;;;4.63;2.70;;;;;;;1.11;81.88;97908.22;5047615;28;20039;-76
2023/02/04 03:23:16;;;;;;;2.80;1.33;;;;;;;1.07;81.32;97905.16;5048151;28;20059;-76
2023/02/04 03:25:43;;;;;;;3.80;1.50;;;;;;;1.06;81.67;97917.03;5047396;28;20028;-76
2023/02/04 03:28:08;;;;;;;2.47;1.25;;;;;;;1.03;81.80;97915.66;5048059;28;20024;-76
2023/02/04 03:30:33;;;;;;;1.60;1.00;;;;;;;1.02;82.18;97924.81;5047667;28;20021;-76
2023/02/04 03:32:59;;;;;;;4.55;1.48;;;;;;;0.98;81.41;97918.28;5048103;28;20083;-76
2023/02/04 03:35:24;;;;;;;3.15;1.15;;;;;;;1.00;81.97;97929.66;5047348;28;20029;-76
2023/02/04 03:37:50;;;;;;;4.18;1.50;;;;;;;0.98;81.80;97931.78;5047891;28;20115;-76
2023/02/04 03:40:15;;;;;;;2.85;1.40;;;;;;;0.99;82.13;97943.41;5047469;28;20452;-76
2023/02/04 03:42:41;;;;;;;1.95;1.52;;;;;;;0.97;82.25;97943.66;5047784;28;20048;-76
2023/02/04 03:45:06;;;;;;;2.17;1.25;;;;;;;0.94;82.19;97954.94;5047322;28;20469;-76
2023/02/04 03:47:32;;;;;;;1.23;0.95;;;;;;;0.91;81.90;97957.31;5047977;28;20415;-76
2023/02/04 03:49:57;;;;;;;1.40;1.30;;;;;;;0.89;82.53;97971.06;5046470;28;20428;-75
2023/02/04 03:52:23;;;;;;;2.47;1.42;;;;;;;0.86;81.80;97976.94;5047769;28;20032;-75
2023/02/04 03:54:48;;;;;;;1.50;1.20;;;;;;;0.85;82.53;97983.41;5047517;28;20104;-76
2023/02/04 03:57:14;;;;;;;1.20;0.93;;;;;;;0.81;82.02;98001.19;5047965;28;20134;-76
2023/02/04 03:59:40;;;;;;;1.67;1.10;;;;;;;0.79;82.30;98009.50;5046801;28;20052;-76
2023/02/04 04:02:06;;;;;;;2.17;1.85;;;;;;;0.76;82.21;98031.59;5047908;28;20449;-76
2023/02/04 04:04:31;;;;;;;2.72;2.28;;;;;;;0.75;82.14;98048.84;5047966;28;20104;-76
2023/02/04 04:06:57;;;;;;;5.65;3.22;;;;;;;0.67;82.23;98063.56;5048262;28;20095;-76
2023/02/04 04:09:22;;;;;;;5.95;3.80;;;;;;;0.57;81.53;98083.09;5047494;28;20095;-75
2023/02/04 04:11:47;;;;;;;5.15;3.55;;;;;;;0.51;82.07;98111.03;5047352;28;20155;-76
2023/02/04 04:14:13;;;;;;;5.05;4.03;;;;;;;0.44;81.04;98130.03;5047557;28;20465;-76
2023/02/04 04:16:38;;;;;;;5.57;3.88;;;;;;;0.40;82.01;98145.09;5047369;28;20033;-76
2023/02/04 04:19:04;;;;;;;6.35;4.38;;;;;;;0.33;81.88;98159.72;5047330;28;20563;-75
2023/02/04 04:21:29;;;;;;;6.35;4.55;;;;;;;0.27;81.60;98183.91;5047116;28;20112;-75
2023/02/04 04:23:55;;;;;;;6.60;4.07;;;;;;;0.25;81.72;98204.88;5050326;28;20386;-75
2023/02/04 04:26:20;;;;;;;5.65;4.05;;;;;;;0.19;81.55;98219.34;5050652;28;20037;-76
2023/02/04 04:28:45;;;;;;;6.70;4.53;;;;;;;0.19;81.11;98223.91;5050879;28;20033;-75
2023/02/04 04:31:11;;;;;;;7.63;4.72;;;;;;;0.16;81.59;98257.56;5051324;28;20031;-75
2023/02/04 04:33:37;;;;;;;6.85;4.72;;;;;;;0.09;80.76;98273.84;5050907;28;20461;-75
2023/02/04 04:36:03;;;;;;;6.68;4.53;;;;;;;0.01;81.01;98284.94;5050766;28;21413;-75
2023/02/04 04:38:28;;;;;;;6.00;4.50;;;;;;;-0.03;80.75;98290.00;5050784;28;20500;-75
2023/02/04 04:40:54;;;;;;;7.55;4.88;;;;;;;-0.06;80.41;98305.81;5050429;28;20122;-74
2023/02/04 04:43:19;;;;;;;7.20;4.53;;;;;;;-0.12;80.24;98323.72;5050804;28;20033;-75
2023/02/04 04:45:45;;;;;;;6.38;4.65;;;;;;;-0.17;80.08;98335.22;5050323;28;20487;-75
2023/02/04 04:48:10;;;;;;;7.18;4.90;;;;;;;-0.17;80.39;98353.25;5051246;28;20723;-75
2023/02/04 04:50:36;;;;;;;8.00;4.95;;;;;;;-0.16;80.14;98371.06;5050372;28;20107;-75
2023/02/04 04:53:01;;;;;;;6.85;4.72;;;;;;;-0.18;79.97;98373.16;5050657;28;20025;-75
2023/02/04 04:55:27;;;;;;;7.43;4.90;;;;;;;-0.23;79.71;98387.34;5049094;28;20135;-74
2023/02/04 04:57:52;;;;;;;6.32;4.82;;;;;;;-0.25;80.13;98415.56;5050939;28;20025;-75
2023/02/04 05:00:20;;;;;;;6.40;4.25;;;;;;;-0.28;79.90;98435.69;5050361;28;20021;-75
2023/02/04 05:02:45;;;;;;;5.20;4.50;;;;;;;-0.31;79.92;98447.78;5050390;28;20584;-75
2023/02/04 05:05:13;;;;;;;5.63;3.83;;;;;;;-0.34;79.53;98448.22;5047236;28;20112;-75
2023/02/04 05:07:38;;;;;;;5.63;4.00;;;;;;;-0.38;79.28;98482.06;5050094;28;20648;-75
2023/02/04 05:10:04;;;;;;;7.55;4.65;;;;;;;-0.40;79.68;98489.53;5049347;28;20029;-75
2023/02/04 05:12:30;;;;;;;6.55;4.40;;;;;;;-0.42;79.64;98502.41;5050538;28;20116;-75
2023/02/04 05:14:56;;;;;;;9.00;5.03;;;;;;;-0.44;79.27;98511.78;5049582;28;20051;-75
2023/02/04 05:17:21;;;;;;;10.63;4.55;;;;;;;-0.45;79.65;98516.31;5049913;28;20025;-75
2023/02/04 05:19:46;;;;;;;6.78;4.10;;;;;;;-0.47;79.51;98548.91;5050105;28;20048;-75
2023/02/04 05:22:12;;;;;;;9.82;4.60;;;;;;;-0.50;79.16;98557.41;5050038;28;20044;-76
2023/02/04 05:24:37;;;;;;;6.57;3.42;;;;;;;-0.53;79.48;98583.97;5049661;28;20477;-75
2023/02/04 05:27:02;;;;;;;6.63;4.22;;;;;;;-0.54;79.64;98587.69;5049653;28;20033;-75
2023/02/04 05:29:28;;;;;;;4.38;3.13;;;;;;;-0.55;79.22;98616.53;5050104;28;20443;-75
2023/02/04 05:31:53;;;;;;;5.07;3.22;;;;;;;-0.56;79.02;98619.44;5049684;28;20033;-75
2023/02/04 05:34:19;;;;;;;5.50;3.15;;;;;;;-0.60;78.84;98641.41;5049298;28;20120;-75
2023/02/04 05:36:44;;;;;;;4.75;2.88;;;;;;;-0.57;79.07;98663.56;5047999;28;20013;-77
2023/02/04 05:39:09;;;;;;;8.27;3.08;;;;;;;-0.62;78.97;98673.16;5050056;28;20025;-75
2023/02/04 05:41:35;;;;;;;5.20;3.03;;;;;;;-0.66;78.29;98682.72;5049035;28;20740;-75
2023/02/04 05:44:00;;;;;;;6.75;4.05;;;;;;;-0.69;78.44;98707.41;5049832;28;20020;-75
2023/02/04 05:46:26;;;;;;;5.63;3.53;;;;;;;-0.70;78.43;98721.91;5049173;28;20031;-75
2023/02/04 05:48:51;;;;;;;4.40;2.90;;;;;;;-0.69;77.88;98730.78;5049606;28;20056;-75
2023/02/04 05:51:19;;;;;;;9.23;4.25;;;;;;;-0.69;78.12;98749.66;5049740;28;20025;-75
2023/02/04 05:53:45;;;;;;;37.05;12.60;;;;;;;-0.71;78.16;98762.50;5049847;28;20590;-75
2023/02/04 05:56:10;;;;;;;10.77;4.70;;;;;;;-0.71;77.54;98787.59;5049330;28;20037;-75
2023/02/04 05:58:35;;;;;;;11.60;5.22;;;;;;;-0.72;77.67;98794.03;5049458;28;20059;-75
2023/02/04 06:01:03;;;;;;;8.63;4.88;;;;;;;-0.72;77.51;98799.41;5048179;28;20029;-75
2023/02/04 06:03:29;;;;;;;9.90;4.53;;;;;;;-0.72;77.00;98812.88;5049388;28;20029;-75
2023/02/04 06:05:55;;;;;;;4.18;3.20;;;;;;;-0.75;76.66;98832.16;5049411;28;20031;-75
2023/02/04 06:08:21;;;;;;;8.45;6.15;;;;;;;-0.78;77.20;98841.47;5050712;28;20393;-75
2023/02/04 06:10:46;;;;;;;6.28;4.68;;;;;;;-0.77;77.23;98851.19;5049137;28;20032;-75
2023/02/04 06:13:12;;;;;;;7.00;4.47;;;;;;;-0.78;77.28;98868.41;5049686;28;20029;-75
2023/02/04 06:15:37;;;;;;;5.78;4.10;;;;;;;-0.77;77.24;98877.31;5049206;28;20029;-75
2023/02/04 06:18:04;;;;;;;7.38;4.60;;;;;;;-0.75;77.33;98899.50;5049476;28;20021;-74
2023/02/04 06:20:29;;;;;;;7.65;4.85;;;;;;;-0.75;77.61;98900.31;5048551;28;20083;-76
2023/02/04 06:22:55;;;;;;;9.73;5.38;;;;;;;-0.75;77.61;98926.44;5047370;28;20045;-75
2023/02/04 06:25:21;;;;;;;9.63;5.43;;;;;;;-0.76;77.07;98924.78;5047634;28;20027;-75
2023/02/04 06:27:46;;;;;;;9.23;6.10;;;;;;;-0.82;77.16;98937.22;5048573;28;20036;-75
2023/02/04 06:30:12;;;;;;;8.52;5.30;;;;;;;-0.82;77.52;98939.06;5049273;28;20109;-75
2023/02/04 06:32:38;;;;;;;8.30;5.18;;;;;;;-0.83;77.21;98959.81;5049188;28;20037;-75
2023/02/04 06:35:04;;;;;;;7.63;5.18;;;;;;;-0.85;77.41;98983.41;5049099;28;20609;-75
2023/02/04 06:37:30;;;;;;;7.93;5.53;;;;;;;-0.88;77.64;98993.75;5049041;28;20135;-75
2023/02/04 06:39:56;;;;;;;7.47;4.90;;;;;;;-0.92;77.51;98996.88;5048898;28;20085;-75
2023/02/04 06:42:22;;;;;;;7.13;4.85;;;;;;;-0.93;77.29;98992.53;5048445;28;20033;-75
2023/02/04 06:44:47;;;;;;;8.18;5.20;;;;;;;-0.96;77.37;99009.09;5048381;28;20023;-75
2023/02/04 06:47:13;;;;;;;8.35;5.53;;;;;;;-0.95;77.76;99024.22;5047076;28;20056;-75
2023/02/04 06:49:38;;;;;;;7.13;5.30;;;;;;;-0.97;78.25;99030.84;5048101;28;20393;-75
2023/02/04 06:52:04;;;;;;;9.52;6.38;;;;;;;-0.99;78.07;99031.03;5048274;28;20060;-75
2023/02/04 06:54:30;;;;;;;8.90;5.80;;;;;;;-0.99;78.02;99047.19;5048423;28;20057;-75
2023/02/04 06:56:56;;;;;;;7.32;5.47;;;;;;;-0.99;78.08;99047.19;5047195;28;20449;-76
2023/02/04 06:59:24;;;;;;;9.65;6.03;;;;;;;-0.99;78.17;99063.34;5048562;28;20032;-75
2023/02/04 07:01:49;;;;;;;9.82;6.25;;;;;;;-0.99;78.23;99070.63;5043566;28;20059;-75
2023/02/04 07:04:15;;;;;;;5.88;4.57;;;;;;;-0.99;78.41;99073.31;5048507;28;20033;-76
2023/02/04 07:06:40;;;;;;;8.23;5.03;;;;;;;-1.00;78.15;99094.00;5048106;28;20100;-75
2023/02/04 07:09:05;;;;;;;9.15;5.43;;;;;;;-0.99;78.16;99108.31;5048027;28;20037;-75
2023/02/04 07:11:31;;;;;;;9.38;6.00;;;;;;;-0.97;78.58;99111.63;5046467;28;20029;-75
2023/02/04 07:13:56;;;;;;;9.13;5.80;;;;;;;-0.97;78.20;99123.22;5047753;28;20031;-75
2023/02/04 07:16:22;;;;;;;9.48;6.13;;;;;;;-0.95;77.10;99144.56;5048389;28;20056;-75
2023/02/04 07:18:47;;;;;;;7.68;5.03;;;;;;;-0.99;77.56;99143.31;5048126;28;20083;-75
2023/02/04 07:21:12;;;;;;;7.68;5.47;;;;;;;-0.98;77.23;99158.44;5046593;28;20812;-75
2023/02/04 07:23:38;;;;;;;8.23;5.15;;;;;;;-0.98;77.36;99164.63;5048313;28;20029;-74
2023/02/04 07:26:04;;;;;;;8.00;5.72;;;;;;;-0.98;76.83;99166.50;5048189;28;20079;-75
2023/02/04 07:28:30;;;;;;;9.73;6.10;;;;;;;-0.97;76.86;99181.63;5046350;28;20091;-75
2023/02/04 07:30:55;;;;;;;9.50;6.28;;;;;;;-0.96;76.75;99184.13;5047817;28;20773;-75
2023/02/04 07:33:21;;;;;;;10.13;6.22;;;;;;;-0.94;76.83;99190.13;5047174;28;20098;-75
2023/02/04 07:35:46;;;;;;;8.38;6.00;;;;;;;-0.92;76.52;99201.53;5047941;28;20031;-75
2023/02/04 07:38:11;;;;;;;9.02;6.43;;;;;;;-0.92;76.46;99215.00;5048052;28;20064;-75
2023/02/04 07:40:38;;;;;;;10.25;6.65;;;;;;;-0.91;76.64;99213.97;5047994;28;20103;-75
2023/02/04 07:43:03;;;;;;;8.23;6.25;;;;;;;-0.91;76.59;99223.91;5047815;28;20052;-74
2023/02/04 07:45:28;;;;;;;9.45;6.03;;;;;;;-0.92;75.98;99224.97;5050361;28;20146;-75
2023/02/04 07:47:54;;;;;;;9.73;6.95;;;;;;;-0.93;76.23;99234.88;5048252;28;20481;-75
2023/02/04 07:50:19;;;;;;;8.95;5.88;;;;;;;-0.91;76.55;99242.78;5047732;28;20083;-75
2023/02/04 07:52:44;;;;;;;10.63;6.72;;;;;;;-0.90;76.08;99249.81;5048160;28;20033;-75
2023/02/04 07:55:10;;;;;;;9.85;6.70;;;;;;;-0.88;76.00;99260.38;5045935;28;20427;-75
2023/02/04 07:57:35;;;;;;;11.20;7.28;;;;;;;-0.89;76.15;99270.34;5048922;28;20021;-75
2023/02/04 08:00:00;;;;;;;12.70;7.68;;;;;;;-0.89;75.84;99275.72;5051438;28;20021;-75
2023/02/04 08:02:26;;;;;;;11.93;7.68;;;;;;;-0.90;76.00;99284.84;5051588;28;20446;-75
2023/02/04 08:04:52;;;;;;;11.02;7.40;;;;;;;-0.90;75.41;99290.22;5051574;28;20032;-75
2023/02/04 08:07:20;;;;;;;8.60;6.32;;;;;;;-0.90;75.65;99298.28;5050074;28;20374;-74
2023/02/04 08:09:46;;;;;;;13.10;6.88;;;;;;;-0.90;75.71;99301.00;5050887;28;20032;-75
2023/02/04 08:12:11;;;;;;;9.20;6.45;;;;;;;-0.90;76.19;99301.00;5050122;28;20029;-75
2023/02/04 08:14:37;;;;;;;10.60;7.03;;;;;;;-0.88;75.70;99317.78;5051103;28;20048;-75
2023/02/04 08:17:02;;;;;;;9.65;6.75;;;;;;;-0.84;75.81;99313.66;5051504;28;20036;-75
2023/02/04 08:19:28;;;;;;;8.13;5.72;;;;;;;-0.81;75.67;99339.34;5051432;28;20033;-75
2023/02/04 08:21:53;;;;;;;9.70;5.93;;;;;;;-0.83;75.42;99331.47;5051407;28;20039;-74
2023/02/04 08:24:18;;;;;;;11.05;6.72;;;;;;;-0.85;74.81;99351.53;5051922;28;20027;-75
2023/02/04 08:26:44;;;;;;;9.98;6.55;;;;;;;-0.83;75.34;99352.19;5051420;28;20033;-74
2023/02/04 08:29:09;;;;;;;11.18;7.13;;;;;;;-0.84;74.74;99361.28;5051266;28;20436;-74
2023/02/04 08:31:38;;;;;;;9.55;6.78;;;;;;;-0.84;74.88;99374.75;5050856;28;20055;-75
2023/02/04 08:34:04;;;;;;;11.38;6.93;;;;;;;-0.83;75.14;99382.66;5049674;28;20021;-75
2023/02/04 08:36:31;;;;;;;13.63;8.32;;;;;;;-0.78;75.57;99396.34;5051208;28;20036;-75
2023/02/04 08:38:56;;;;;;;12.90;7.45;;;;;;;-0.74;74.93;99399.47;5051405;28;20171;-75
2023/02/04 08:41:21;;;;;;;10.65;7.72;;;;;;;-0.72;75.00;99402.81;5050921;28;20036;-74
2023/02/04 08:43:47;;;;;;;11.18;7.10;;;;;;;-0.70;74.60;99403.44;5050962;28;20477;-74
2023/02/04 08:46:12;;;;;;;20.65;10.48;;;;;;;-0.69;74.31;99405.09;5050284;28;20734;-74
2023/02/04 08:48:38;;;;;;;11.05;7.20;;;;;;;-0.67;74.66;99419.22;5050820;28;20440;-74
2023/02/04 08:51:03;;;;;;;12.13;7.43;;;;;;;-0.66;74.78;99410.09;5050661;28;20044;-76
2023/02/04 08:53:29;;;;;;;15.98;8.82;;;;;;;-0.61;74.82;99421.09;5051177;28;20500;-74
2023/02/04 08:55:54;;;;;;;14.65;8.02;;;;;;;-0.60;74.88;99425.44;5050930;28;20074;-74
2023/02/04 08:58:20;;;;;;;14.20;7.97;;;;;;;-0.54;74.17;99428.38;5050811;28;20029;-74
2023/02/04 09:00:45;;;;;;;13.80;7.38;;;;;;;-0.49;74.14;99428.59;5049771;28;20074;-74
2023/02/04 09:03:10;;;;;;;13.77;8.18;;;;;;;-0.45;73.92;99437.97;5050019;28;20057;-74
2023/02/04 09:05:36;;;;;;;9.88;7.20;;;;;;;-0.42;74.73;99453.72;5050847;28;20070;-75
2023/02/04 09:08:01;;;;;;;14.00;7.63;;;;;;;-0.34;74.45;99461.66;5048951;28;20028;-75
2023/02/04 09:10:26;;;;;;;11.65;6.68;;;;;;;-0.28;73.61;99461.91;5050514;28;20029;-75
2023/02/04 09:12:54;;;;;;;10.57;6.60;;;;;;;-0.26;74.13;99476.81;5050888;28;20024;-75
2023/02/04 09:15:21;;;;;;;10.68;6.32;;;;;;;-0.21;73.88;99487.84;5046482;28;20033;-75
2023/02/04 09:17:46;;;;;;;11.23;7.65;;;;;;;-0.16;74.27;99490.78;5049777;28;20029;-74
2023/02/04 09:20:12;;;;;;;27.65;16.40;;;;;;;-0.06;74.19;99494.97;5048959;28;20021;-74
2023/02/04 09:22:37;;;;;;;40.13;21.90;;;;;;;0.07;73.22;99496.88;5050155;28;20029;-74
2023/02/04 09:25:03;;;;;;;20.65;12.18;;;;;;;0.13;73.75;99505.00;5049744;28;20104;-75
2023/02/04 09:27:29;;;;;;;12.70;8.52;;;;;;;0.12;73.51;99508.72;5049975;28;20405;-74
2023/02/04 09:29:54;;;;;;;10.32;7.30;;;;;;;0.10;73.05;99509.97;5049726;28;20064;-75
2023/02/04 09:32:19;;;;;;;9.98;6.45;;;;;;;0.13;72.63;99515.78;5048860;28;20584;-75
2023/02/04 09:34:45;;;;;;;12.63;7.20;;;;;;;0.22;73.02;99518.31;5050027;28;20385;-77
2023/02/04 09:37:10;;;;;;;19.95;12.20;;;;;;;0.29;72.65;99524.56;5051089;28;20439;-77
2023/02/04 09:39:35;;;;;;;12.40;7.43;;;;;;;0.33;72.71;99535.78;5048657;28;20036;-79
2023/02/04 09:42:01;;;;;;;20.05;11.35;;;;;;;0.39;71.84;99545.75;5049696;28;20457;-75
2023/02/04 09:44:27;;;;;;;12.57;6.63;;;;;;;0.36;71.80;99548.88;5049949;28;20033;-75
2023/02/04 09:46:57;;;;;;;13.40;6.57;;;;;;;0.31;72.02;99548.63;5050588;28;20120;-76
2023/02/04 09:49:23;;;;;;;9.68;5.72;;;;;;;0.28;71.46;99558.78;5049677;28;20565;-78
2023/02/04 09:51:49;;;;;;;13.05;6.65;;;;;;;0.16;70.61;99555.03;5049249;28;20171;-76
2023/02/04 09:54:18;;;;;;;11.57;6.22;;;;;;;0.08;70.93;99566.81;5049395;28;20029;-73
2023/02/04 09:56:44;;;;;;;13.97;7.60;;;;;;;0.03;70.05;99566.56;5050914;28;20029;-74
2023/02/04 09:59:15;;;;;;;21.27;9.63;;;;;;;0.01;70.38;99573.22;5049098;28;20501;-74
2023/02/04 10:01:42;;;;;;;14.93;8.07;;;;;;;0.08;69.81;99572.19;5048692;28;20033;-75
2023/02/04 10:04:12;;;;;;;15.77;7.32;;;;;;;0.13;69.81;99560.81;5047850;28;20112;-71
2023/02/04 10:06:38;;;;;;;14.38;8.00;;;;;;;0.14;70.71;99567.88;5050310;28;20108;-73
2023/02/04 10:09:04;;;;;;;16.80;9.30;;;;;;;0.17;70.28;99572.88;5046056;28;20410;-72
2023/02/04 10:11:33;;;;;;;13.65;8.10;;;;;;;0.16;69.88;99584.72;5049781;28;20170;-72
2023/02/04 10:13:58;;;;;;;11.48;6.00;;;;;;;0.07;69.66;99578.63;5047955;28;20025;-72
2023/02/04 10:16:29;;;;;;;6.28;4.43;;;;;;;-0.03;69.42;99581.69;5050903;28;20098;-72
2023/02/04 10:19:00;;;;;;;9.13;5.63;;;;;;;-0.07;69.38;99583.13;5051978;28;20094;-72
2023/02/04 10:21:28;;;;;;;8.55;5.15;;;;;;;-0.12;69.72;99585.56;5049956;28;20324;-72
2023/02/04 10:23:56;;;;;;;11.60;5.97;;;;;;;-0.09;69.46;99578.97;5048431;28;20029;-73
2023/02/04 10:26:24;;;;;;;10.55;5.30;;;;;;;0.00;70.43;99580.47;5053070;28;20481;-72
2023/02/04 10:29:16;;;;;;;9.90;5.03;;;;;;;0.12;69.75;99573.47;5051520;28;20504;-73
2023/02/04 10:31:46;;;;;;;8.32;5.20;;;;;;;0.23;69.08;99572.06;5046407;28;20033;-73
2023/02/04 10:34:18;;;;;;;12.38;6.63;;;;;;;0.22;67.19;99583.06;5049931;28;20397;-74
2023/02/04 10:36:46;;;;;;;10.13;5.90;;;;;;;0.12;68.29;99584.25;5053513;28;20381;-72
2023/02/04 10:39:18;;;;;;;7.10;4.53;;;;;;;0.07;67.61;99585.91;5052392;28;20041;-73
2023/02/04 10:41:52;;;;;;;6.40;3.55;;;;;;;-0.03;67.07;99591.66;5046271;28;20101;-72
2023/02/04 10:44:20;;;;;;;10.48;4.93;;;;;;;-0.10;67.71;99590.78;5037307;28;20059;-73
2023/02/04 10:46:47;;;;;;;14.20;6.43;;;;;;;-0.07;67.52;99596.59;5050092;28;20132;-73
2023/02/04 10:49:23;;;;;;;9.35;4.80;;;;;;;0.03;67.69;99600.81;5049963;28;20092;-73
2023/02/04 10:51:51;;;;;;;7.45;3.40;;;;;;;0.17;67.17;99597.16;5048435;28;20035;-73
2023/02/04 10:54:30;;;;;;;5.45;2.80;;;;;;;0.21;65.71;99603.78;5050188;28;20028;-73
2023/02/04 10:57:20;;;;;;;5.68;3.45;;;;;;;0.12;65.62;99608.53;5050048;28;20847;-73
2023/02/04 10:59:48;;;;;;;7.15;3.90;;;;;;;0.04;66.25;99626.75;5047955;28;20036;-72
2023/02/04 11:02:44;;;;;;;8.85;4.50;;;;;;;-0.03;66.48;99624.03;5048769;28;20064;-73
2023/02/04 11:05:14;;;;;;;7.90;3.58;;;;;;;-0.04;65.97;99627.75;5048161;28;20090;-73
2023/02/04 11:07:39;;;;;;;8.98;4.45;;;;;;;0.02;66.46;99623.41;5049750;28;20033;-73
2023/02/04 11:10:05;;;;;;;8.40;4.68;;;;;;;0.13;65.87;99630.97;5048863;28;20070;-74
2023/02/04 11:12:44;;;;;;;11.05;5.28;;;;;;;0.19;66.74;99630.19;5048929;28;20033;-74
2023/02/04 11:15:43;;;;;;;8.95;4.90;;;;;;;0.32;66.36;99637.50;5047937;28;20040;-74
2023/02/04 11:18:23;;;;;;;10.88;3.65;;;;;;;0.39;64.44;99632.13;5049245;28;20074;-74
2023/02/04 11:20:52;;;;;;;4.28;3.00;;;;;;;0.45;63.83;99642.13;5050302;28;20397;-75
2023/02/04 11:23:33;;;;;;;6.75;4.05;;;;;;;0.53;63.69;99641.09;5050435;28;20025;-74
2023/02/04 11:26:09;;;;;;;6.75;3.97;;;;;;;0.64;64.28;99635.13;5049211;28;20041;-75
2023/02/04 11:29:08;;;;;;;8.35;4.60;;;;;;;0.69;63.36;99634.53;5051617;28;20031;-74
2023/02/04 11:31:33;;;;;;;8.13;4.10;;;;;;;0.70;61.78;99634.34;5051037;28;20125;-74
2023/02/04 11:34:08;;;;;;;23.73;9.90;;;;;;;0.72;62.76;99639.53;5053697;28;20346;-74